N700AF KDEN-
Flight info
| Callsign | N700AF |
|---|---|
| Flight time | N/A |
| Altitude | VFR |
| Route | SOUTH |
| Aircraft | TBM9/L-DOV/C |
Departure
| Time | 2026-05-06 16:59 |
|---|---|
| Airport | Denver International Airport (KDEN) |
Arrival
| Time | N/A |
|---|---|
| Airport | - |
| Time | Latitude | Longitude | Altitude | Speed | Heading |
|---|---|---|---|---|---|
| 2026-05-06 16:55 | 39.85136 | -104.68975 | 5349 ft | 0 kts | 355° |
| 2026-05-06 16:56 | 39.85171 | -104.68976 | 5350 ft | 13 kts | 353° |
| 2026-05-06 16:57 | 39.85197 | -104.69089 | 5346 ft | 17 kts | 274° |
| 2026-05-06 16:57 | 39.85200 | -104.69268 | 5339 ft | 22 kts | 269° |
| 2026-05-06 16:57 | 39.85206 | -104.69494 | 5329 ft | 28 kts | 271° |
| 2026-05-06 16:57 | 39.85263 | -104.69656 | 5332 ft | 21 kts | 355° |
| 2026-05-06 16:58 | 39.85515 | -104.69655 | 5333 ft | 65 kts | 359° |
| 2026-05-06 16:58 | 39.86174 | -104.69662 | 5384 ft | 120 kts | 2° |
| 2026-05-06 16:58 | 39.87132 | -104.69655 | 5499 ft | 158 kts | 4° |
| 2026-05-06 16:58 | 39.88340 | -104.69663 | 5644 ft | 186 kts | 3° |
| 2026-05-06 16:59 | 39.89602 | -104.69606 | 6444 ft | 177 kts | 359° |
| 2026-05-06 16:59 | 39.90874 | -104.69865 | 6830 ft | 191 kts | 350° |
| 2026-05-06 16:59 | 39.92207 | -104.70315 | 7110 ft | 202 kts | 349° |
| 2026-05-06 16:59 | 39.93619 | -104.70934 | 6813 ft | 230 kts | 337° |
| 2026-05-06 17:00 | 39.94944 | -104.71948 | 7185 ft | 209 kts | 324° |
| 2026-05-06 17:00 | 39.95884 | -104.73287 | 7475 ft | 200 kts | 307° |
| 2026-05-06 17:00 | 39.96542 | -104.74990 | 7355 ft | 219 kts | 296° |
| 2026-05-06 17:00 | 39.96944 | -104.76765 | 8046 ft | 200 kts | 284° |
| 2026-05-06 17:01 | 39.97258 | -104.78672 | 7984 ft | 215 kts | 280° |
| 2026-05-06 17:01 | 39.97270 | -104.80413 | 9120 ft | 174 kts | 269° |
| 2026-05-06 17:01 | 39.97062 | -104.82197 | 8582 ft | 223 kts | 252° |
| 2026-05-06 17:01 | 39.96326 | -104.84002 | 8765 ft | 220 kts | 238° |
| 2026-05-06 17:02 | 39.95386 | -104.85595 | 8880 ft | 223 kts | 228° |
| 2026-05-06 17:02 | 39.94202 | -104.86923 | 8941 ft | 227 kts | 217° |
| 2026-05-06 17:02 | 39.92853 | -104.87951 | 9159 ft | 221 kts | 206° |
| 2026-05-06 17:02 | 39.91462 | -104.88576 | 9804 ft | 198 kts | 195° |
| 2026-05-06 17:03 | 39.90128 | -104.88951 | 10157 ft | 200 kts | 190° |
| 2026-05-06 17:03 | 39.88662 | -104.89198 | 9555 ft | 236 kts | 188° |
| 2026-05-06 17:03 | 39.86943 | -104.89405 | 8297 ft | 252 kts | 187° |
| 2026-05-06 17:03 | 39.85488 | -104.89823 | 8766 ft | 183 kts | 195° |
| 2026-05-06 17:04 | 39.84263 | -104.90246 | 7944 ft | 204 kts | 198° |
| 2026-05-06 17:04 | 39.83087 | -104.90948 | 7986 ft | 163 kts | 217° |
| 2026-05-06 17:04 | 39.82251 | -104.91900 | 7817 ft | 178 kts | 225° |
| 2026-05-06 17:04 | 39.81362 | -104.93141 | 7751 ft | 187 kts | 230° |
| 2026-05-06 17:05 | 39.80562 | -104.94435 | 8012 ft | 177 kts | 231° |
| 2026-05-06 17:05 | 39.79829 | -104.95766 | 8117 ft | 188 kts | 236° |
| 2026-05-06 17:05 | 39.79143 | -104.97366 | 7927 ft | 216 kts | 244° |
| 2026-05-06 17:05 | 39.78561 | -104.99183 | 8045 ft | 219 kts | 250° |
| 2026-05-06 17:06 | 39.78067 | -105.01094 | 7975 ft | 228 kts | 251° |
| 2026-05-06 17:06 | 39.77550 | -105.03035 | 8123 ft | 222 kts | 249° |
| 2026-05-06 17:06 | 39.76832 | -105.04683 | 8689 ft | 201 kts | 233° |
| 2026-05-06 17:06 | 39.75902 | -105.06021 | 9098 ft | 208 kts | 217° |
| 2026-05-06 17:07 | 39.74632 | -105.07098 | 9309 ft | 224 kts | 210° |
| 2026-05-06 17:07 | 39.73242 | -105.08045 | 9703 ft | 227 kts | 202° |
| 2026-05-06 17:07 | 39.71767 | -105.08582 | 10343 ft | 217 kts | 185° |
| 2026-05-06 17:07 | 39.70277 | -105.08526 | 10897 ft | 212 kts | 178° |
| 2026-05-06 17:08 | 39.68799 | -105.08355 | 11301 ft | 216 kts | 174° |
| 2026-05-06 17:08 | 39.67344 | -105.08129 | 12034 ft | 202 kts | 177° |
| 2026-05-06 17:08 | 39.65923 | -105.07973 | 12404 ft | 214 kts | 181° |
| 2026-05-06 17:08 | 39.64341 | -105.07880 | 12351 ft | 238 kts | 183° |
| 2026-05-06 17:09 | 39.62652 | -105.07889 | 12498 ft | 250 kts | 180° |
| 2026-05-06 17:09 | 39.60887 | -105.07712 | 12783 ft | 251 kts | 181° |
| 2026-05-06 17:09 | 39.59206 | -105.07618 | 13538 ft | 237 kts | 182° |
| 2026-05-06 17:09 | 39.57594 | -105.07482 | 14158 ft | 229 kts | 180° |
| 2026-05-06 17:10 | 39.56060 | -105.07355 | 15019 ft | 215 kts | 181° |
| 2026-05-06 17:10 | 39.54508 | -105.07178 | 15109 ft | 237 kts | 182° |
| 2026-05-06 17:10 | 39.52841 | -105.07075 | 15354 ft | 248 kts | 181° |
| 2026-05-06 17:10 | 39.51083 | -105.06903 | 15355 ft | 265 kts | 181° |
| 2026-05-06 17:11 | 39.49142 | -105.06753 | 14853 ft | 291 kts | 179° |
| 2026-05-06 17:11 | 39.47146 | -105.06415 | 15073 ft | 282 kts | 177° |
| 2026-05-06 17:11 | 39.45184 | -105.06132 | 15004 ft | 289 kts | 180° |
| 2026-05-06 17:11 | 39.43193 | -105.05946 | 15038 ft | 288 kts | 180° |
| 2026-05-06 17:12 | 39.41216 | -105.05755 | 15213 ft | 285 kts | 181° |
| 2026-05-06 17:12 | 39.39254 | -105.05677 | 15479 ft | 275 kts | 183° |
| 2026-05-06 17:12 | 39.37235 | -105.05630 | 14482 ft | 307 kts | 184° |
| 2026-05-06 17:12 | 39.35349 | -105.05513 | 15056 ft | 244 kts | 178° |
| 2026-05-06 17:13 | 39.33837 | -105.05367 | 15420 ft | 188 kts | 186° |
| 2026-05-06 17:13 | 39.32452 | -105.05247 | 14681 ft | 231 kts | 183° |
| 2026-05-06 17:13 | 39.30799 | -105.05206 | 14742 ft | 236 kts | 187° |
| 2026-05-06 17:13 | 39.29169 | -105.05413 | 14917 ft | 239 kts | 188° |
| 2026-05-06 17:14 | 39.27541 | -105.05499 | 15414 ft | 226 kts | 191° |
| 2026-05-06 17:14 | 39.26019 | -105.05786 | 15886 ft | 220 kts | 194° |
| 2026-05-06 17:14 | 39.24432 | -105.06007 | 15845 ft | 239 kts | 189° |
| 2026-05-06 17:14 | 39.22733 | -105.06009 | 15436 ft | 247 kts | 184° |
| 2026-05-06 17:15 | 39.21046 | -105.06012 | 15382 ft | 237 kts | 186° |
| 2026-05-06 17:15 | 39.19420 | -105.06265 | 15112 ft | 234 kts | 196° |
| 2026-05-06 17:15 | 39.17654 | -105.06363 | 13449 ft | 279 kts | 178° |
| 2026-05-06 17:15 | 39.15725 | -105.06123 | 12903 ft | 281 kts | 175° |
| 2026-05-06 17:16 | 39.13829 | -105.05662 | 13183 ft | 275 kts | 173° |
| 2026-05-06 17:16 | 39.11898 | -105.05263 | 12896 ft | 288 kts | 172° |
| 2026-05-06 17:16 | 39.09936 | -105.04779 | 12803 ft | 290 kts | 175° |
| 2026-05-06 17:16 | 39.07915 | -105.04381 | 12433 ft | 298 kts | 172° |